createdAt,value
2022-10-13T00:01:10.549Z,24.77
2022-10-13T00:03:39.139Z,23.48
2022-10-13T00:06:07.713Z,19.40
2022-10-13T00:08:36.045Z,21.77
2022-10-13T00:11:10.072Z,26.70
2022-10-13T00:13:38.127Z,24.92
2022-10-13T00:16:06.201Z,20.08
2022-10-13T00:18:34.179Z,24.10
2022-10-13T00:21:02.815Z,15.85
2022-10-13T00:23:30.788Z,18.58
2022-10-13T00:25:58.637Z,25.13
2022-10-13T00:28:28.189Z,19.50
2022-10-13T00:30:56.022Z,25.38
2022-10-13T00:33:24.382Z,20.17
2022-10-13T00:35:52.246Z,24.95
2022-10-13T00:38:21.139Z,23.27
2022-10-13T00:40:50.517Z,19.13
2022-10-13T00:43:19.152Z,29.10
2022-10-13T00:45:50.673Z,24.13
2022-10-13T00:48:19.805Z,19.75
2022-10-13T00:50:47.899Z,21.30
2022-10-13T00:53:16.159Z,21.83
2022-10-13T00:55:44.842Z,19.92
2022-10-13T00:58:16.130Z,30.23
2022-10-13T01:00:46.097Z,23.70
2022-10-13T01:03:16.054Z,20.10
2022-10-13T01:05:43.946Z,20.65
2022-10-13T01:08:12.374Z,22.08
2022-10-13T01:10:46.538Z,24.63
2022-10-13T01:13:17.968Z,31.00
2022-10-13T01:15:50.280Z,24.02
2022-10-13T01:18:23.401Z,17.55
2022-10-13T01:21:00.861Z,15.18
2022-10-13T01:23:41.586Z,26.65
2022-10-13T01:26:22.467Z,16.27
2022-10-13T01:28:56.998Z,21.55
2022-10-13T01:31:29.007Z,20.30
2022-10-13T01:34:00.726Z,23.92
2022-10-13T01:36:32.841Z,23.02
2022-10-13T01:39:04.151Z,26.27
2022-10-13T01:41:35.678Z,20.95
2022-10-13T01:44:07.044Z,15.90
2022-10-13T01:46:37.575Z,23.77
2022-10-13T01:49:06.650Z,19.02
2022-10-13T01:51:35.055Z,19.17
2022-10-13T01:54:03.181Z,18.08
2022-10-13T01:56:31.339Z,19.63
2022-10-13T01:59:00.570Z,20.92
2022-10-13T02:01:33.572Z,23.27
2022-10-13T02:06:32.855Z,21.58
2022-10-13T02:09:03.820Z,21.25
2022-10-13T02:11:31.759Z,23.98
2022-10-13T02:14:01.399Z,15.80
2022-10-13T02:16:30.733Z,19.65
2022-10-13T02:18:59.043Z,19.30
2022-10-13T02:21:27.527Z,21.00
2022-10-13T02:23:56.993Z,19.05
2022-10-13T02:26:25.706Z,19.38
2022-10-13T02:28:53.688Z,21.02
2022-10-13T02:31:21.760Z,21.42
2022-10-13T02:33:49.558Z,20.77
2022-10-13T02:36:17.586Z,20.30
2022-10-13T02:38:45.400Z,18.90
2022-10-13T02:41:14.713Z,20.65
2022-10-13T02:43:42.598Z,20.55
2022-10-13T02:46:10.419Z,18.35
2022-10-13T02:48:38.442Z,22.45
2022-10-13T02:51:06.669Z,16.30
2022-10-13T02:53:34.808Z,18.70
2022-10-13T02:56:02.619Z,22.52
2022-10-13T02:58:32.216Z,18.73
2022-10-13T03:01:06.448Z,17.48
2022-10-13T03:03:34.317Z,18.80
2022-10-13T03:06:02.691Z,23.45
2022-10-13T03:08:30.636Z,18.95
2022-10-13T03:10:58.467Z,23.77
2022-10-13T03:13:26.424Z,22.55
2022-10-13T03:15:56.292Z,18.98
2022-10-13T03:18:24.118Z,18.70
2022-10-13T03:21:02.190Z,20.38
2022-10-13T03:23:30.128Z,23.40
2022-10-13T03:25:57.973Z,23.15
2022-10-13T03:28:25.921Z,21.02
2022-10-13T03:31:02.382Z,19.45
2022-10-13T03:33:30.217Z,28.40
2022-10-13T03:35:59.704Z,19.73
2022-10-13T03:38:28.218Z,24.27
2022-10-13T03:40:56.407Z,19.67
2022-10-13T03:43:24.302Z,19.75
2022-10-13T03:45:58.631Z,20.48
2022-10-13T03:48:28.035Z,18.83
2022-10-13T03:50:55.907Z,21.92
2022-10-13T03:53:24.476Z,16.88
2022-10-13T03:55:52.893Z,20.80
2022-10-13T03:58:21.386Z,21.48
2022-10-13T04:00:49.221Z,18.23
2022-10-13T04:03:17.631Z,24.95
2022-10-13T04:05:47.481Z,15.25
2022-10-13T04:08:15.445Z,21.35
2022-10-13T04:10:43.584Z,18.85
2022-10-13T04:13:11.491Z,30.10
2022-10-13T04:15:39.801Z,22.60
2022-10-13T04:18:08.482Z,19.38
2022-10-13T04:20:37.658Z,20.42
2022-10-13T04:23:07.566Z,19.90
2022-10-13T04:25:35.820Z,24.42
2022-10-13T04:28:04.224Z,19.83
2022-10-13T04:30:33.446Z,27.70
2022-10-13T04:33:01.515Z,17.52
2022-10-13T04:35:29.581Z,18.50
2022-10-13T04:37:57.925Z,26.77
2022-10-13T04:40:27.588Z,19.83
2022-10-13T04:42:55.592Z,21.05
2022-10-13T04:45:23.430Z,23.05
2022-10-13T04:47:52.253Z,23.40
2022-10-13T04:50:20.465Z,20.63
2022-10-13T04:52:48.308Z,15.13
2022-10-13T04:55:16.237Z,20.85
2022-10-13T04:57:45.588Z,22.65
2022-10-13T05:00:14.088Z,22.58
2022-10-13T05:02:42.198Z,22.88
2022-10-13T05:05:10.475Z,18.25
2022-10-13T05:07:38.640Z,23.30
2022-10-13T05:10:06.705Z,24.77
2022-10-13T05:12:34.545Z,25.23
2022-10-13T05:15:04.242Z,21.58
2022-10-13T05:17:35.316Z,20.42
2022-10-13T05:20:03.830Z,33.13
2022-10-13T05:22:39.716Z,26.85
2022-10-13T05:25:07.729Z,32.60
2022-10-13T05:27:35.523Z,21.70
2022-10-13T05:30:04.975Z,25.80
2022-10-13T05:32:32.836Z,21.50
2022-10-13T05:35:00.626Z,24.23
2022-10-13T05:37:28.695Z,28.95
2022-10-13T05:39:56.765Z,25.08
2022-10-13T05:42:24.640Z,21.42
2022-10-13T05:44:52.531Z,21.10
2022-10-13T05:47:23.362Z,26.02
2022-10-13T05:49:51.191Z,25.00
2022-10-13T05:52:19.259Z,24.13
2022-10-13T05:54:48.668Z,19.60
2022-10-13T05:57:18.743Z,29.30
2022-10-13T05:59:50.163Z,30.80
2022-10-13T06:02:19.347Z,24.63
2022-10-13T06:04:51.640Z,23.10
2022-10-13T06:07:19.575Z,18.10
2022-10-13T06:09:47.530Z,19.70
2022-10-13T06:12:15.866Z,25.00
2022-10-13T06:14:43.834Z,30.10
2022-10-13T06:17:14.404Z,26.77
2022-10-13T06:19:42.227Z,24.48
2022-10-13T06:22:11.824Z,30.80
2022-10-13T06:24:39.645Z,26.90
2022-10-13T06:27:07.467Z,29.70
2022-10-13T06:29:36.053Z,24.92
2022-10-13T06:32:04.399Z,22.92
2022-10-13T06:34:32.506Z,21.33
2022-10-13T06:37:00.635Z,21.35
2022-10-13T06:39:29.757Z,19.10
2022-10-13T06:41:58.239Z,19.05
2022-10-13T06:44:26.023Z,19.92
2022-10-13T06:46:53.892Z,24.10
2022-10-13T06:49:22.219Z,20.48
2022-10-13T06:51:50.192Z,18.80
2022-10-13T06:54:18.235Z,22.98
2022-10-13T06:56:47.440Z,22.73
2022-10-13T06:59:15.373Z,24.25
2022-10-13T07:01:43.400Z,21.38
2022-10-13T07:04:11.188Z,29.38
2022-10-13T07:06:39.086Z,28.30
2022-10-13T07:09:07.718Z,27.13
2022-10-13T07:11:35.866Z,28.85
2022-10-13T07:14:05.102Z,27.77
2022-10-13T07:16:33.287Z,29.48
2022-10-13T07:19:01.497Z,38.55
2022-10-13T07:21:32.271Z,33.28
2022-10-13T07:27:41.062Z,33.95
2022-10-13T07:30:11.250Z,29.80
2022-10-13T07:36:22.074Z,29.92
2022-10-13T07:38:51.037Z,31.70
2022-10-13T07:41:33.805Z,36.08
2022-10-13T07:44:01.628Z,30.45
2022-10-13T07:46:30.846Z,48.00
2022-10-13T07:48:58.674Z,35.20
2022-10-13T07:51:26.545Z,40.03
2022-10-13T07:53:55.585Z,26.63
2022-10-13T07:56:23.430Z,22.88
2022-10-13T07:58:51.390Z,24.10
2022-10-13T08:01:19.255Z,25.30
2022-10-13T08:03:50.653Z,28.65
2022-10-13T08:06:18.745Z,23.23
2022-10-13T08:08:46.798Z,24.65
2022-10-13T08:11:16.825Z,19.80
2022-10-13T08:13:47.469Z,35.03
2022-10-13T08:16:15.345Z,23.90
2022-10-13T08:18:43.109Z,40.90
2022-10-13T08:24:01.671Z,31.02
2022-10-13T08:26:30.056Z,25.92
2022-10-13T08:29:16.686Z,29.05
2022-10-13T08:31:46.135Z,26.00
2022-10-13T08:34:14.209Z,58.75
2022-10-13T08:36:43.850Z,51.42
2022-10-13T08:39:12.132Z,41.63
2022-10-13T08:41:41.284Z,31.25
2022-10-13T08:44:56.623Z,27.48
2022-10-13T08:47:03.594Z,25.70
2022-10-13T08:49:31.562Z,24.70
2022-10-13T08:52:04.015Z,24.83
2022-10-13T08:54:31.978Z,22.58
2022-10-13T08:59:28.830Z,28.80
2022-10-13T09:01:56.766Z,26.70
2022-10-13T09:04:29.541Z,24.52
2022-10-13T09:06:59.472Z,24.08
2022-10-13T09:09:28.767Z,30.13
2022-10-13T09:11:56.587Z,34.55
2022-10-13T09:14:25.317Z,27.55
2022-10-13T09:16:53.529Z,27.52
2022-10-13T09:19:23.424Z,33.28
2022-10-13T09:21:51.502Z,28.63
2022-10-13T09:24:21.213Z,29.67
2022-10-13T09:26:52.786Z,33.58
2022-10-13T09:29:23.788Z,37.72
2022-10-13T09:31:52.158Z,29.95
2022-10-13T09:34:24.612Z,26.20
2022-10-13T09:36:59.722Z,23.58
2022-10-13T09:39:27.943Z,27.55
2022-10-13T09:42:11.014Z,35.40
2022-10-13T09:44:40.402Z,34.28
2022-10-13T09:47:17.700Z,27.50
2022-10-13T09:49:46.292Z,28.08
2022-10-13T09:52:17.478Z,36.42
2022-10-13T09:54:47.523Z,27.38
2022-10-13T09:57:18.176Z,31.00
2022-10-13T09:59:49.656Z,30.02
2022-10-13T10:02:28.292Z,28.23
2022-10-13T10:04:58.123Z,31.50
2022-10-13T10:07:28.638Z,27.98
2022-10-13T10:09:58.351Z,26.45
2022-10-13T10:12:29.634Z,23.92
2022-10-13T10:14:58.824Z,31.80
2022-10-13T10:17:29.817Z,31.27
2022-10-13T10:20:02.666Z,29.00
2022-10-13T10:22:35.660Z,30.08
2022-10-13T10:25:10.959Z,25.27
2022-10-13T10:27:43.655Z,26.85
2022-10-13T10:32:44.156Z,31.17
2022-10-13T10:35:14.206Z,36.60
2022-10-13T10:37:49.443Z,39.22
2022-10-13T10:40:22.982Z,28.73
2022-10-13T10:42:59.782Z,28.30
2022-10-13T10:45:28.965Z,27.73
2022-10-13T10:48:00.311Z,29.98
2022-10-13T10:50:29.675Z,28.45
2022-10-13T10:53:00.906Z,26.98
2022-10-13T10:55:34.125Z,25.48
2022-10-13T10:58:07.277Z,26.40
2022-10-13T11:03:09.234Z,27.20
2022-10-13T11:05:52.156Z,28.80
2022-10-13T11:08:27.686Z,26.77
2022-10-13T11:11:10.428Z,29.52
2022-10-13T11:13:50.583Z,31.60
2022-10-13T11:16:27.569Z,25.35
2022-10-13T11:19:06.610Z,19.05
2022-10-13T11:22:01.500Z,19.60
2022-10-13T11:24:47.701Z,28.52
2022-10-13T11:27:25.999Z,21.58
2022-10-13T11:29:55.778Z,27.25
2022-10-13T11:32:42.444Z,20.20
2022-10-13T11:35:20.908Z,28.50
2022-10-13T11:38:06.013Z,23.35
2022-10-13T11:40:42.520Z,27.65
2022-10-13T11:43:19.299Z,23.42
2022-10-13T11:45:57.533Z,24.67
2022-10-13T11:48:38.343Z,24.55
2022-10-13T11:51:13.957Z,18.55
2022-10-13T11:53:48.630Z,20.85
2022-10-13T11:56:22.407Z,25.23
2022-10-13T11:58:50.390Z,28.05
2022-10-13T12:01:19.441Z,21.85
2022-10-13T12:03:48.005Z,18.40
2022-10-13T12:06:26.849Z,23.35
2022-10-13T12:08:54.863Z,24.50
2022-10-13T12:11:25.793Z,26.20
2022-10-13T12:13:53.974Z,18.75
2022-10-13T12:16:22.184Z,26.55
2022-10-13T12:18:50.130Z,20.92
2022-10-13T12:21:20.121Z,21.95
2022-10-13T12:23:48.487Z,25.05
2022-10-13T12:26:17.705Z,18.65
2022-10-13T12:28:50.338Z,22.15
2022-10-13T12:31:19.764Z,21.05
2022-10-13T12:33:53.086Z,20.17
2022-10-13T12:36:22.100Z,17.05
2022-10-13T12:38:50.811Z,22.88
2022-10-13T12:41:21.377Z,19.90
2022-10-13T12:43:51.274Z,14.85
2022-10-13T12:46:34.203Z,11.50
2022-10-13T12:49:05.131Z,11.57
2022-10-13T12:51:33.888Z,14.93
2022-10-13T12:54:01.906Z,11.43
2022-10-13T12:56:31.737Z,12.23
2022-10-13T12:59:01.444Z,8.75
2022-10-13T13:01:31.790Z,10.27
2022-10-13T13:04:01.499Z,13.15
2022-10-13T13:06:34.046Z,13.23
2022-10-13T13:09:22.891Z,16.67
2022-10-13T13:12:04.171Z,17.65
2022-10-13T13:14:37.492Z,12.20
2022-10-13T13:17:06.941Z,11.85
2022-10-13T13:19:35.427Z,10.55
2022-10-13T13:22:06.452Z,10.15
2022-10-13T13:24:41.624Z,8.05
2022-10-13T13:27:17.820Z,13.05
2022-10-13T13:29:47.496Z,12.02
2022-10-13T13:32:16.851Z,14.70
2022-10-13T13:34:46.902Z,17.05
2022-10-13T13:37:17.091Z,14.50
2022-10-13T13:39:45.371Z,13.15
2022-10-13T13:42:14.685Z,11.25
2022-10-13T13:44:42.912Z,11.18
2022-10-13T13:47:18.108Z,8.38
2022-10-13T13:49:46.616Z,8.70
2022-10-13T13:52:14.456Z,11.55
2022-10-13T13:54:42.510Z,14.93
2022-10-13T13:57:10.520Z,10.40
2022-10-13T13:59:38.397Z,13.38
2022-10-13T14:02:07.107Z,7.82
2022-10-13T14:04:36.418Z,13.68
2022-10-13T14:07:04.389Z,7.57
2022-10-13T14:09:32.248Z,9.35
2022-10-13T14:12:00.206Z,9.32
2022-10-13T14:14:28.360Z,13.00
2022-10-13T14:16:56.180Z,7.05
2022-10-13T14:19:24.202Z,7.60
2022-10-13T14:21:53.471Z,8.80
2022-10-13T14:24:21.937Z,11.20
2022-10-13T14:26:49.825Z,12.40
2022-10-13T14:29:18.099Z,9.32
2022-10-13T14:31:46.007Z,7.72
2022-10-13T14:34:14.280Z,8.82
2022-10-13T14:36:42.327Z,6.28
2022-10-13T14:39:11.581Z,8.57
2022-10-13T14:41:39.979Z,8.98
2022-10-13T14:44:07.838Z,10.05
2022-10-13T14:46:35.668Z,9.23
2022-10-13T14:49:03.652Z,11.82
2022-10-13T14:51:32.382Z,6.30
2022-10-13T14:54:01.702Z,16.15
2022-10-13T14:56:31.908Z,13.32
2022-10-13T14:59:00.575Z,13.80
2022-10-13T15:01:28.659Z,10.98
2022-10-13T15:03:56.539Z,15.10
2022-10-13T15:06:25.763Z,9.30
2022-10-13T15:08:53.626Z,13.32
2022-10-13T15:11:22.487Z,14.07
2022-10-13T15:13:51.751Z,7.55
2022-10-13T15:16:20.218Z,8.25
2022-10-13T15:18:48.652Z,7.68
2022-10-13T15:21:16.691Z,8.85
2022-10-13T15:23:44.683Z,13.13
2022-10-13T15:26:13.205Z,8.77
2022-10-13T15:28:42.155Z,8.52
2022-10-13T15:31:11.448Z,10.63
2022-10-13T15:33:40.350Z,16.00
2022-10-13T15:36:08.697Z,18.00
2022-10-13T15:38:36.454Z,11.10
2022-10-13T15:41:05.206Z,7.60
2022-10-13T15:43:33.593Z,12.77
2022-10-13T15:46:02.532Z,15.75
2022-10-13T15:48:32.602Z,9.25
2022-10-13T15:51:00.823Z,9.77
2022-10-13T15:53:30.551Z,7.20
2022-10-13T15:55:58.317Z,7.20
2022-10-13T15:58:26.125Z,8.80
2022-10-13T16:00:54.202Z,7.53
2022-10-13T16:03:22.190Z,9.07
2022-10-13T16:05:51.353Z,10.55
2022-10-13T16:08:19.191Z,9.23
2022-10-13T16:10:47.258Z,10.82
2022-10-13T16:13:15.959Z,8.50
2022-10-13T16:15:43.851Z,12.40
2022-10-13T16:18:11.910Z,14.98
2022-10-13T16:20:45.415Z,15.43
2022-10-13T16:23:14.564Z,17.40
2022-10-13T16:25:42.386Z,19.25
2022-10-13T16:28:10.407Z,17.70
2022-10-13T16:30:38.543Z,11.35
2022-10-13T16:33:06.424Z,13.75
2022-10-13T16:35:35.313Z,10.05
2022-10-13T16:38:03.172Z,24.10
2022-10-13T16:40:32.494Z,19.20
2022-10-13T16:43:00.310Z,16.10
2022-10-13T16:45:47.931Z,16.25
2022-10-13T16:48:16.227Z,20.00
2022-10-13T16:50:44.024Z,20.17
2022-10-13T16:53:11.943Z,17.40
2022-10-13T16:55:42.831Z,14.50
2022-10-13T16:58:11.174Z,15.55
2022-10-13T17:00:39.412Z,13.98
2022-10-13T17:03:07.415Z,15.77
2022-10-13T17:05:35.276Z,12.70
2022-10-13T17:08:03.275Z,12.35
2022-10-13T17:10:31.171Z,18.35
2022-10-13T17:13:00.402Z,16.85
2022-10-13T17:15:29.391Z,12.40
2022-10-13T17:17:57.431Z,17.27
2022-10-13T17:20:25.211Z,12.40
2022-10-13T17:22:53.133Z,14.65
2022-10-13T17:25:20.955Z,21.80
2022-10-13T17:27:48.988Z,12.55
2022-10-13T17:30:18.258Z,17.65
2022-10-13T17:32:46.098Z,11.45
2022-10-13T17:35:17.882Z,14.88
2022-10-13T17:37:45.708Z,17.27
2022-10-13T17:40:13.488Z,13.15
2022-10-13T17:42:41.585Z,14.25
2022-10-13T17:45:10.081Z,15.00
2022-10-13T17:47:39.493Z,11.32
2022-10-13T17:50:07.511Z,12.90
2022-10-13T17:52:35.358Z,14.55
2022-10-13T17:55:03.605Z,15.50
2022-10-13T17:57:31.428Z,13.45
2022-10-13T17:59:59.285Z,12.15
2022-10-13T18:02:27.496Z,16.27
2022-10-13T18:04:56.665Z,13.07
2022-10-13T18:07:25.419Z,13.45
2022-10-13T18:09:53.544Z,21.55
2022-10-13T18:12:21.387Z,14.40
2022-10-13T18:14:49.432Z,14.70
2022-10-13T18:17:17.236Z,16.40
2022-10-13T18:19:46.297Z,12.98
2022-10-13T18:22:15.709Z,11.07
2022-10-13T18:24:43.573Z,15.05
2022-10-13T18:27:11.743Z,19.73
2022-10-13T18:29:39.539Z,12.80
2022-10-13T18:32:07.747Z,14.43
2022-10-13T18:34:36.380Z,13.38
2022-10-13T18:37:05.548Z,24.08
2022-10-13T18:39:35.403Z,17.58
2022-10-13T18:42:03.208Z,22.40
2022-10-13T18:44:31.060Z,22.05
2022-10-13T18:46:58.922Z,19.63
2022-10-13T18:49:31.426Z,14.48
2022-10-13T18:51:59.987Z,16.52
2022-10-13T18:54:28.745Z,17.75
2022-10-13T18:56:58.012Z,21.42
2022-10-13T18:59:25.824Z,20.75
2022-10-13T19:01:53.704Z,20.27
2022-10-13T19:04:22.530Z,19.83
2022-10-13T19:06:50.342Z,17.10
2022-10-13T19:09:18.534Z,12.77
2022-10-13T19:11:46.794Z,18.30
2022-10-13T19:14:16.279Z,21.23
2022-10-13T19:16:44.956Z,19.10
2022-10-13T19:19:13.216Z,14.35
2022-10-13T19:21:41.389Z,22.15
2022-10-13T19:24:09.682Z,16.45
2022-10-13T19:26:37.741Z,14.80
2022-10-13T19:29:06.519Z,20.05
2022-10-13T19:31:36.634Z,17.23
2022-10-13T19:34:04.826Z,23.63
2022-10-13T19:36:33.946Z,18.85
2022-10-13T19:39:02.507Z,17.85
2022-10-13T19:41:32.918Z,19.27
2022-10-13T19:44:01.035Z,15.80
2022-10-13T19:46:28.846Z,19.38
2022-10-13T19:48:58.207Z,17.33
2022-10-13T19:51:26.307Z,17.52
2022-10-13T19:53:54.349Z,22.77
2022-10-13T19:56:23.301Z,17.90
2022-10-13T19:58:52.143Z,17.20
2022-10-13T20:01:20.366Z,17.00
2022-10-13T20:03:48.527Z,19.42
2022-10-13T20:06:18.100Z,21.55
2022-10-13T20:08:46.101Z,23.85
2022-10-13T20:11:19.353Z,26.05
2022-10-13T20:13:50.311Z,19.63
2022-10-13T20:16:19.874Z,27.58
2022-10-13T20:18:51.614Z,18.40
2022-10-13T20:21:20.928Z,16.33
2022-10-13T20:23:49.214Z,16.00
2022-10-13T20:26:18.183Z,15.90
2022-10-13T20:28:46.733Z,18.58
2022-10-13T20:31:15.379Z,21.27
2022-10-13T20:33:43.779Z,25.45
2022-10-13T20:36:13.048Z,17.38
2022-10-13T20:38:42.429Z,20.05
2022-10-13T20:41:15.224Z,19.92
2022-10-13T20:43:43.241Z,19.02
2022-10-13T20:46:11.514Z,23.92
2022-10-13T20:49:05.533Z,19.80
2022-10-13T20:51:28.376Z,15.00
2022-10-13T20:53:57.608Z,19.65
2022-10-13T20:56:27.022Z,20.42
2022-10-13T20:58:55.220Z,16.10
2022-10-13T21:01:23.880Z,15.70
2022-10-13T21:03:52.309Z,17.27
2022-10-13T21:06:20.435Z,18.52
2022-10-13T21:08:50.834Z,20.45
2022-10-13T21:11:21.286Z,16.35
2022-10-13T21:13:49.707Z,18.77
2022-10-13T21:16:18.790Z,16.15
2022-10-13T21:18:48.984Z,23.25
2022-10-13T21:21:17.976Z,15.50
2022-10-13T21:23:46.312Z,20.33
2022-10-13T21:26:17.608Z,19.38
2022-10-13T21:28:51.334Z,16.95
2022-10-13T21:31:20.064Z,17.65
2022-10-13T21:33:47.915Z,20.98
2022-10-13T21:36:19.535Z,19.42
2022-10-13T21:38:47.959Z,17.02
2022-10-13T21:41:16.083Z,28.90
2022-10-13T21:43:44.089Z,27.23
2022-10-13T21:46:14.244Z,18.85
2022-10-13T21:48:42.326Z,15.45
2022-10-13T21:51:14.022Z,21.55
2022-10-13T21:53:42.096Z,18.05
2022-10-13T21:56:11.472Z,24.30
2022-10-13T21:58:39.591Z,19.73
2022-10-13T22:01:07.612Z,22.13
2022-10-13T22:03:39.531Z,23.83
2022-10-13T22:06:07.928Z,23.95
2022-10-13T22:08:39.076Z,18.20
2022-10-13T22:11:07.909Z,19.50
2022-10-13T22:13:36.264Z,18.85
2022-10-13T22:16:05.071Z,19.30
2022-10-13T22:18:33.163Z,17.25
2022-10-13T22:21:03.201Z,16.00
2022-10-13T22:23:31.319Z,17.10
2022-10-13T22:25:59.123Z,21.83
2022-10-13T22:28:27.275Z,21.25
2022-10-13T22:30:55.112Z,17.23
2022-10-13T22:33:23.231Z,18.98
2022-10-13T22:35:51.063Z,21.98
2022-10-13T22:38:20.237Z,18.80
2022-10-13T22:40:48.679Z,16.23
2022-10-13T22:43:16.592Z,19.08
2022-10-13T22:45:50.400Z,17.45
2022-10-13T22:48:18.271Z,16.85
2022-10-13T22:50:46.237Z,19.50
2022-10-13T22:53:14.815Z,19.08
2022-10-13T22:55:43.987Z,20.88
2022-10-13T22:58:12.035Z,18.27
2022-10-13T23:00:40.269Z,19.70
2022-10-13T23:03:08.444Z,19.75
2022-10-13T23:05:36.287Z,20.05
2022-10-13T23:08:04.104Z,20.05
2022-10-13T23:10:32.005Z,19.38
2022-10-13T23:13:01.201Z,17.27
2022-10-13T23:15:29.044Z,18.00
2022-10-13T23:17:57.138Z,22.13
2022-10-13T23:20:25.047Z,20.15
2022-10-13T23:22:52.926Z,19.55
2022-10-13T23:25:21.012Z,19.70
2022-10-13T23:27:48.850Z,27.88
2022-10-13T23:30:18.103Z,18.90
2022-10-13T23:32:46.135Z,20.02
2022-10-13T23:35:14.168Z,23.08
2022-10-13T23:37:42.065Z,20.00
2022-10-13T23:40:10.458Z,19.30
2022-10-13T23:42:38.540Z,17.40
2022-10-13T23:45:07.005Z,16.92
2022-10-13T23:47:36.467Z,17.08
2022-10-13T23:50:04.632Z,17.80
2022-10-13T23:52:32.967Z,14.77
2022-10-13T23:55:00.807Z,22.35
2022-10-13T23:57:30.111Z,27.98
2022-10-13T23:59:58.164Z,22.67
